Time;durP1;ratioP1;P1;durP2;ratioP2;P2;SDS_P1;SDS_P2;PMS_P1;PMS_P2;Temp;Humidity;BMP_temperature;BMP_pressure;BME280_temperature;BME280_humidity;BME280_pressure;Samples;Min_cycle;Max_cycle;Signal;HPM_P1;HPM_P2
2022/12/09 00:01:49;;;;;;;0.80;0.80;;;-1.20;99.90;;;;;;5060643;28;19924;-83
2022/12/09 00:04:16;;;;;;;0.80;0.80;;;-1.40;99.90;;;;;;5057108;28;20053;-82
2022/12/09 00:06:41;;;;;;;2.00;1.90;;;-1.40;99.90;;;;;;5051429;28;20041;-81
2022/12/09 00:09:13;;;;;;;0.80;0.80;;;-1.60;99.90;;;;;;5056844;28;20044;-83
2022/12/09 00:11:39;;;;;;;0.80;0.80;;;-1.60;99.90;;;;;;5025722;28;20037;-82
2022/12/09 00:14:05;;;;;;;0.98;0.98;;;-1.50;99.90;;;;;;5054760;28;20071;-81
2022/12/09 00:16:30;;;;;;;;;;;-1.50;99.90;;;;;;5021750;28;20045;-80
2022/12/09 00:18:57;;;;;;;0.80;0.80;;;-1.50;99.90;;;;;;5056409;28;20019;-81
2022/12/09 00:21:27;;;;;;;0.80;0.80;;;-1.50;99.90;;;;;;5057141;28;20047;-80
2022/12/09 00:23:54;;;;;;;1.30;1.20;;;-1.60;99.90;;;;;;5056467;28;20048;-81
2022/12/09 00:26:22;;;;;;;0.80;0.80;;;-1.70;99.90;;;;;;5068968;28;20119;-81
2022/12/09 00:28:49;;;;;;;1.30;1.20;;;-1.70;99.90;;;;;;5055399;28;20569;-81
2022/12/09 00:31:35;;;;;;;0.70;0.70;;;-1.70;99.90;;;;;;5058101;28;20072;-82
2022/12/09 00:34:04;;;;;;;1.10;1.05;;;-1.70;99.90;;;;;;5055300;28;20083;-80
2022/12/09 00:36:30;;;;;;;0.70;0.70;;;-1.60;99.90;;;;;;5063286;28;20040;-82
2022/12/09 00:38:57;;;;;;;0.80;0.80;;;-0.80;99.90;;;;;;5052859;28;20397;-81
2022/12/09 00:41:23;;;;;;;0.80;0.80;;;-1.60;99.90;;;;;;5052667;28;20469;-81
2022/12/09 00:43:48;;;;;;;0.90;0.90;;;-1.60;99.90;;;;;;5059725;28;20049;-83
2022/12/09 00:46:15;;;;;;;0.95;0.95;;;0.10;99.90;;;;;;5039176;28;20064;-82
2022/12/09 00:48:42;;;;;;;0.70;0.70;;;-1.50;99.90;;;;;;5038055;28;20045;-82
2022/12/09 00:51:12;;;;;;;2.17;2.08;;;-1.50;99.90;;;;;;5050794;28;20040;-80
2022/12/09 00:53:38;;;;;;;0.70;0.70;;;-1.40;99.90;;;;;;5049388;28;20048;-81
2022/12/09 00:56:06;;;;;;;1.00;1.00;;;-1.20;99.90;;;;;;5071236;28;20053;-81
2022/12/09 00:58:39;;;;;;;0.88;0.88;;;-1.50;99.90;;;;;;5059181;28;20047;-81
2022/12/09 01:01:05;;;;;;;0.88;0.88;;;-1.40;99.90;;;;;;5060554;28;20052;-83
2022/12/09 01:03:31;;;;;;;0.90;0.90;;;-1.40;99.90;;;;;;5016495;28;20129;-83
2022/12/09 01:05:56;;;;;;;0.80;0.80;;;-1.20;99.90;;;;;;5066491;28;20048;-81
2022/12/09 01:08:22;;;;;;;0.77;0.77;;;-1.40;99.90;;;;;;5051360;28;20450;-81
2022/12/09 01:10:48;;;;;;;0.77;0.77;;;-1.50;99.90;;;;;;5036695;28;20029;-82
2022/12/09 01:13:15;;;;;;;0.88;0.88;;;-1.60;99.90;;;;;;5052144;28;20049;-81
2022/12/09 01:15:42;;;;;;;0.70;0.70;;;-1.30;99.90;;;;;;5059120;28;20048;-83
2022/12/09 01:18:08;;;;;;;1.05;1.05;;;-1.70;99.90;;;;;;5053410;28;20120;-81
2022/12/09 01:20:35;;;;;;;0.70;0.70;;;-1.80;99.90;;;;;;5056370;28;20048;-82
2022/12/09 01:23:01;;;;;;;0.70;0.70;;;-1.90;99.90;;;;;;5040719;28;20037;-83
2022/12/09 01:25:27;;;;;;;1.15;1.15;;;-1.90;99.90;;;;;;5044560;28;20036;-82
2022/12/09 01:27:52;;;;;;;0.80;0.80;;;-1.60;99.90;;;;;;5040126;28;20450;-81
2022/12/09 01:30:18;;;;;;;0.90;0.90;;;-1.90;99.90;;;;;;5058617;28;20395;-81
2022/12/09 01:32:45;;;;;;;;;;;-2.00;99.90;;;;;;5055544;28;20322;-80
2022/12/09 01:35:11;;;;;;;0.90;0.90;;;-2.00;99.90;;;;;;5070906;28;20267;-81
2022/12/09 01:37:37;;;;;;;0.80;0.80;;;-2.00;99.90;;;;;;5044551;28;20036;-80
2022/12/09 01:40:09;;;;;;;1.00;1.00;;;-0.60;99.90;;;;;;5060655;28;20093;-79
2022/12/09 01:42:35;;;;;;;0.88;0.88;;;-2.00;99.90;;;;;;5059829;28;20045;-80
2022/12/09 01:45:20;;;;;;;0.80;0.80;;;-2.10;99.90;;;;;;5054663;28;20040;-81
2022/12/09 01:47:55;;;;;;;0.80;0.80;;;-2.10;99.90;;;;;;5056927;28;20066;-82
2022/12/09 01:50:22;;;;;;;1.48;1.38;;;-2.10;99.90;;;;;;5057182;28;20044;-81
2022/12/09 01:52:49;;;;;;;0.82;0.82;;;-1.60;99.90;;;;;;5042532;28;20048;-80
2022/12/09 01:55:15;;;;;;;0.82;0.82;;;-2.20;99.90;;;;;;5042483;28;20453;-82
2022/12/09 01:57:43;;;;;;;0.80;0.80;;;-2.20;99.90;;;;;;5060123;28;20040;-83
2022/12/09 02:00:11;;;;;;;0.80;0.80;;;-2.10;99.90;;;;;;5065217;28;20032;-82
2022/12/09 02:02:38;;;;;;;0.90;0.90;;;-2.10;99.90;;;;;;5059721;28;20101;-82
2022/12/09 02:05:04;;;;;;;0.68;0.68;;;-2.00;99.90;;;;;;5037710;28;20423;-82
2022/12/09 02:07:31;;;;;;;0.80;0.80;;;-2.00;99.90;;;;;;5061800;28;20048;-82
2022/12/09 02:10:02;;;;;;;0.90;0.90;;;-2.00;99.90;;;;;;5064933;28;20379;-83
2022/12/09 02:12:33;;;;;;;0.70;0.70;;;-2.00;99.90;;;;;;5062415;28;20113;-80
2022/12/09 02:15:07;;;;;;;0.90;0.90;;;-2.00;99.90;;;;;;5070986;28;20145;-81
2022/12/09 02:17:40;;;;;;;0.85;0.85;;;-1.60;99.90;;;;;;5056387;28;20129;-82
2022/12/09 02:20:33;;;;;;;0.70;0.70;;;-2.00;99.90;;;;;;5065373;28;20137;-84
2022/12/09 02:23:21;;;;;;;0.70;0.70;;;-2.10;99.90;;;;;;5076828;28;20056;-83
2022/12/09 02:25:53;;;;;;;0.70;0.70;;;-2.10;99.90;;;;;;5053528;28;20040;-82
2022/12/09 02:28:37;;;;;;;0.70;0.70;;;-2.00;99.90;;;;;;5063871;28;20028;-82
2022/12/09 02:31:17;;;;;;;0.70;0.70;;;-2.00;99.90;;;;;;5065075;28;20037;-82
2022/12/09 02:34:11;;;;;;;0.90;0.90;;;-2.00;99.90;;;;;;5054223;28;20155;-80
2022/12/09 02:36:51;;;;;;;0.77;0.77;;;-2.10;99.90;;;;;;5054757;28;20047;-81
2022/12/09 02:39:33;;;;;;;0.77;0.77;;;-2.10;99.90;;;;;;5075112;28;20040;-81
2022/12/09 02:42:02;;;;;;;;;;;-2.20;99.90;;;;;;5056017;28;20033;-82
2022/12/09 02:44:29;;;;;;;0.80;0.80;;;-2.20;99.90;;;;;;5068077;28;20268;-82
2022/12/09 02:46:56;;;;;;;0.70;0.70;;;-2.20;99.90;;;;;;5056117;28;20077;-82
2022/12/09 02:49:25;;;;;;;0.80;0.80;;;-2.10;99.90;;;;;;5038866;28;20181;-82
2022/12/09 02:51:52;;;;;;;0.70;0.70;;;-2.20;99.90;;;;;;5050501;28;20037;-83
2022/12/09 02:54:21;;;;;;;0.80;0.80;;;-2.10;99.90;;;;;;5036729;28;20440;-83
2022/12/09 02:57:00;;;;;;;0.70;0.70;;;-2.10;99.90;;;;;;5040958;28;20098;-82
2022/12/09 02:59:26;;;;;;;1.05;1.05;;;-2.10;99.90;;;;;;5061401;28;20512;-83
2022/12/09 03:02:11;;;;;;;;;;;-2.10;99.90;;;;;;5039316;28;20037;-81
2022/12/09 03:04:39;;;;;;;0.80;0.80;;;-2.20;99.90;;;;;;5056126;28;19933;-83
2022/12/09 03:07:26;;;;;;;0.95;0.95;;;-2.20;99.90;;;;;;5050261;28;20057;-83
2022/12/09 03:10:05;;;;;;;0.70;0.70;;;-2.20;99.90;;;;;;5038540;28;20122;-83
2022/12/09 03:12:33;;;;;;;0.70;0.70;;;-2.20;99.90;;;;;;5052602;28;20382;-83
2022/12/09 03:15:02;;;;;;;0.73;0.73;;;-2.20;99.90;;;;;;5054430;28;20141;-84
2022/12/09 03:17:34;;;;;;;0.70;0.70;;;-2.30;99.90;;;;;;5070526;28;20045;-84
2022/12/09 03:20:18;;;;;;;0.73;0.73;;;-1.60;99.90;;;;;;5045274;28;20064;-82
2022/12/09 03:22:46;;;;;;;0.55;0.55;;;-2.30;99.90;;;;;;5037659;28;20738;-83
2022/12/09 03:25:23;;;;;;;0.85;0.85;;;-2.60;99.90;;;;;;5052214;28;20119;-83
2022/12/09 03:28:04;;;;;;;0.80;0.80;;;-2.30;99.90;;;;;;5051516;28;20049;-82
2022/12/09 03:30:39;;;;;;;0.80;0.80;;;-2.30;99.90;;;;;;5070660;28;20101;-83
2022/12/09 03:33:05;;;;;;;0.80;0.80;;;-2.30;99.90;;;;;;5055812;28;20045;-82
2022/12/09 03:35:38;;;;;;;0.68;0.68;;;-2.40;99.90;;;;;;5059540;28;20469;-81
2022/12/09 03:38:07;;;;;;;0.80;0.80;;;-1.40;99.90;;;;;;5055692;28;20044;-82
2022/12/09 03:40:34;;;;;;;0.60;0.60;;;-2.40;99.90;;;;;;5043218;28;20054;-83
2022/12/09 03:43:09;;;;;;;0.70;0.70;;;-2.40;99.90;;;;;;5039788;28;20040;-82
2022/12/09 03:45:35;;;;;;;0.70;0.70;;;-2.50;99.90;;;;;;5038914;28;20048;-84
2022/12/09 03:48:01;;;;;;;0.80;0.80;;;-2.50;99.90;;;;;;5058374;28;21559;-83
2022/12/09 03:50:33;;;;;;;0.80;0.80;;;-2.50;99.90;;;;;;5046716;28;20051;-82
2022/12/09 03:53:21;;;;;;;0.80;0.80;;;-2.50;99.90;;;;;;5061268;28;20041;-80
2022/12/09 03:55:50;;;;;;;0.60;0.60;;;-2.50;99.90;;;;;;5039709;28;20049;-80
2022/12/09 03:58:16;;;;;;;0.90;0.90;;;-2.50;99.90;;;;;;5055861;28;20073;-82
2022/12/09 04:00:43;;;;;;;0.73;0.73;;;-2.50;99.90;;;;;;5058952;28;20114;-80
2022/12/09 04:03:12;;;;;;;0.70;0.70;;;-2.50;99.90;;;;;;5037725;28;20049;-81
2022/12/09 04:05:38;;;;;;;0.90;0.90;;;-2.50;99.90;;;;;;5047964;28;20053;-82
2022/12/09 04:08:04;;;;;;;0.82;0.82;;;-2.50;99.90;;;;;;5038063;28;20053;-81
2022/12/09 04:10:29;;;;;;;;;;;-2.50;99.90;;;;;;5055887;28;20032;-82
2022/12/09 04:12:55;;;;;;;0.80;0.80;;;-1.40;99.90;;;;;;5053873;28;19932;-82
2022/12/09 04:15:21;;;;;;;;;;;-2.70;99.90;;;;;;5039497;28;20040;-82
2022/12/09 04:17:46;;;;;;;0.70;0.70;;;-2.70;99.90;;;;;;5051439;28;19923;-82
2022/12/09 04:20:13;;;;;;;;;;;-2.70;99.90;;;;;;5021196;28;20044;-82
2022/12/09 04:22:39;;;;;;;0.90;0.90;;;-2.70;99.90;;;;;;5052065;28;19924;-82
2022/12/09 04:25:08;;;;;;;0.70;0.70;;;-2.60;99.90;;;;;;5057912;28;20385;-83
2022/12/09 04:27:34;;;;;;;0.70;0.70;;;-2.50;99.90;;;;;;5031613;28;20048;-82
2022/12/09 04:30:00;;;;;;;0.60;0.60;;;-2.60;99.90;;;;;;5042510;28;20040;-83
2022/12/09 04:32:27;;;;;;;;;;;-2.60;99.90;;;;;;5051025;28;20040;-81
2022/12/09 04:34:53;;;;;;;;;;;-2.60;99.90;;;;;;5055221;28;20270;-81
2022/12/09 04:37:18;;;;;;;0.70;0.70;;;-2.70;99.90;;;;;;5033650;28;19924;-82
2022/12/09 04:39:44;;;;;;;;;;;-2.70;99.90;;;;;;5050575;28;20048;-81
2022/12/09 04:42:10;;;;;;;0.90;0.90;;;-2.70;99.90;;;;;;5052096;28;20463;-82
2022/12/09 04:44:35;;;;;;;1.00;1.00;;;-2.70;99.90;;;;;;5036093;28;20036;-82
2022/12/09 04:47:01;;;;;;;0.80;0.80;;;-2.60;99.90;;;;;;5052600;28;20742;-82
2022/12/09 04:49:27;;;;;;;0.80;0.80;;;-2.60;99.90;;;;;;5022052;28;20144;-81
2022/12/09 04:51:53;;;;;;;0.80;0.80;;;-2.60;99.90;;;;;;5054319;28;20088;-82
2022/12/09 04:54:18;;;;;;;;;;;-2.50;99.90;;;;;;5026196;28;20043;-83
2022/12/09 04:56:44;;;;;;;0.77;0.77;;;-2.50;99.90;;;;;;5021931;28;19921;-83
2022/12/09 04:59:10;;;;;;;0.70;0.70;;;-2.40;99.90;;;;;;5036865;28;20049;-84
2022/12/09 05:01:35;;;;;;;0.90;0.90;;;-2.40;99.90;;;;;;5067606;28;20106;-82
2022/12/09 05:04:02;;;;;;;;;;;-2.40;99.90;;;;;;5054641;28;20115;-82
2022/12/09 05:06:28;;;;;;;0.70;0.70;;;-2.30;99.90;;;;;;5068333;28;19923;-83
2022/12/09 05:08:56;;;;;;;;;;;-2.30;99.90;;;;;;5058990;28;20035;-83
2022/12/09 05:11:22;;;;;;;0.75;0.75;;;-2.30;99.90;;;;;;5035164;28;19923;-82
2022/12/09 05:13:49;;;;;;;0.80;0.80;;;-2.30;99.90;;;;;;5040379;28;20063;-83
2022/12/09 05:16:17;;;;;;;0.80;0.80;;;-2.80;99.90;;;;;;5039456;28;20124;-82
2022/12/09 05:18:43;;;;;;;0.80;0.80;;;-2.30;99.90;;;;;;5054427;28;20098;-81
2022/12/09 05:21:12;;;;;;;0.80;0.80;;;-2.40;99.90;;;;;;5052665;28;20060;-82
2022/12/09 05:23:39;;;;;;;0.90;0.90;;;-1.20;99.90;;;;;;5054264;28;20079;-81
2022/12/09 05:26:09;;;;;;;0.98;0.98;;;-2.30;99.90;;;;;;5060813;28;20048;-81
2022/12/09 05:28:35;;;;;;;0.70;0.70;;;-2.20;99.90;;;;;;5057768;28;20785;-80
2022/12/09 05:31:02;;;;;;;0.80;0.80;;;-2.30;99.90;;;;;;5040518;28;20093;-83
2022/12/09 05:33:28;;;;;;;0.80;0.80;;;-2.30;99.90;;;;;;5054341;28;20881;-83
2022/12/09 05:35:54;;;;;;;;;;;-2.40;99.90;;;;;;5058026;28;20055;-82
2022/12/09 05:38:21;;;;;;;0.80;0.80;;;-2.40;99.90;;;;;;5052546;28;19924;-80
2022/12/09 05:40:48;;;;;;;0.80;0.80;;;-2.40;99.90;;;;;;5040282;28;20155;-84
2022/12/09 05:43:14;;;;;;;1.30;1.30;;;-2.50;99.90;;;;;;5059471;28;20047;-81
2022/12/09 05:45:41;;;;;;;0.70;0.70;;;-2.40;99.90;;;;;;5049334;28;20040;-81
2022/12/09 05:48:07;;;;;;;1.90;1.80;;;-2.40;99.90;;;;;;5057753;28;20420;-80
2022/12/09 05:50:39;;;;;;;0.70;0.70;;;-2.40;99.90;;;;;;5053752;28;20171;-84
2022/12/09 05:53:10;;;;;;;0.80;0.80;;;-2.40;99.90;;;;;;5053996;28;20082;-83
2022/12/09 05:55:39;;;;;;;1.70;1.60;;;-2.40;99.90;;;;;;5052699;28;20502;-84
2022/12/09 05:58:05;;;;;;;0.88;0.88;;;-2.40;99.90;;;;;;5037784;28;20048;-81
2022/12/09 06:00:30;;;;;;;0.80;0.80;;;-2.30;99.90;;;;;;5059663;28;20102;-81
2022/12/09 06:02:56;;;;;;;0.95;0.95;;;-2.30;99.90;;;;;;5053989;28;20085;-82
2022/12/09 06:05:23;;;;;;;0.90;0.90;;;-2.40;99.90;;;;;;5037227;28;20097;-82
2022/12/09 06:07:49;;;;;;;0.90;0.90;;;-1.90;99.90;;;;;;5056903;28;20074;-81
2022/12/09 06:10:20;;;;;;;0.80;0.80;;;-2.30;99.90;;;;;;5061306;28;20106;-80
2022/12/09 06:12:46;;;;;;;0.82;0.82;;;-2.30;99.90;;;;;;5073778;28;20273;-82
2022/12/09 06:15:11;;;;;;;;;;;-2.40;99.90;;;;;;5035985;28;20096;-80
2022/12/09 06:17:38;;;;;;;0.77;0.77;;;-2.50;99.90;;;;;;5057093;28;19939;-85
2022/12/09 06:20:05;;;;;;;0.80;0.80;;;-4.00;99.90;;;;;;5046038;28;20128;-84
2022/12/09 06:22:30;;;;;;;0.80;0.80;;;-2.60;99.90;;;;;;5060748;28;20104;-82
2022/12/09 06:25:02;;;;;;;0.80;0.80;;;-2.70;99.90;;;;;;5046628;28;20043;-86
2022/12/09 06:27:28;;;;;;;0.70;0.70;;;-2.70;99.90;;;;;;5063619;28;20064;-83
2022/12/09 06:29:54;;;;;;;0.90;0.90;;;-2.80;99.90;;;;;;5061381;28;20083;-84
2022/12/09 06:32:20;;;;;;;0.70;0.70;;;-2.80;99.90;;;;;;5043695;28;20909;-83
2022/12/09 06:34:45;;;;;;;;;;;-2.90;99.90;;;;;;5045543;28;20055;-81
2022/12/09 06:37:11;;;;;;;0.70;0.70;;;-2.90;99.90;;;;;;5061135;28;19925;-81
2022/12/09 06:39:36;;;;;;;0.75;0.75;;;-1.60;99.90;;;;;;5046333;28;20048;-79
2022/12/09 06:42:03;;;;;;;;;;;-2.30;99.90;;;;;;5043003;28;20061;-82
2022/12/09 06:44:29;;;;;;;0.60;0.60;;;-3.00;99.90;;;;;;5038458;28;19979;-85
2022/12/09 06:46:55;;;;;;;0.80;0.80;;;-2.90;99.90;;;;;;5057530;28;20071;-83
2022/12/09 06:49:21;;;;;;;0.70;0.70;;;-2.90;99.90;;;;;;5058164;28;20059;-82
2022/12/09 06:51:46;;;;;;;;;;;-2.90;99.90;;;;;;5050013;28;20040;-80
2022/12/09 06:54:12;;;;;;;0.80;0.80;;;-2.60;99.90;;;;;;5052337;28;19925;-79
2022/12/09 06:56:38;;;;;;;;;;;-3.00;99.90;;;;;;5057916;28;20127;-81
2022/12/09 06:59:08;;;;;;;0.80;0.80;;;-3.00;99.90;;;;;;5058329;28;19924;-81
2022/12/09 07:01:34;;;;;;;0.85;0.85;;;-2.30;99.90;;;;;;5044408;28;20856;-81
2022/12/09 07:04:02;;;;;;;0.80;0.80;;;-3.10;99.90;;;;;;5059278;28;20481;-81
2022/12/09 07:06:30;;;;;;;0.90;0.90;;;-3.00;99.90;;;;;;5070037;28;20068;-83
2022/12/09 07:09:02;;;;;;;0.80;0.80;;;-2.90;99.90;;;;;;5062042;28;20036;-82
2022/12/09 07:11:29;;;;;;;0.70;0.70;;;-2.90;99.90;;;;;;5070306;28;20391;-82
2022/12/09 07:13:55;;;;;;;0.88;0.88;;;-2.60;99.90;;;;;;5059914;28;20040;-83
2022/12/09 07:16:20;;;;;;;1.00;1.00;;;-2.70;99.90;;;;;;5044277;28;20094;-83
2022/12/09 07:18:46;;;;;;;;;;;-2.80;99.90;;;;;;5053096;28;20133;-82
2022/12/09 07:21:14;;;;;;;0.80;0.80;;;-2.80;99.90;;;;;;5061160;28;19931;-80
2022/12/09 07:23:41;;;;;;;0.80;0.80;;;-2.70;99.90;;;;;;5066981;28;20047;-81
2022/12/09 07:26:06;;;;;;;;;;;-2.70;99.90;;;;;;5057079;28;20067;-81
2022/12/09 07:28:35;;;;;;;0.73;0.73;;;-2.60;99.90;;;;;;5056206;28;20968;-81
2022/12/09 07:31:02;;;;;;;0.70;0.70;;;-2.60;99.90;;;;;;5014783;28;20048;-81
2022/12/09 07:33:28;;;;;;;0.85;0.85;;;-2.70;99.90;;;;;;5059031;28;20084;-81
2022/12/09 07:35:57;;;;;;;0.80;0.80;;;-2.70;99.90;;;;;;5039877;28;20049;-81
2022/12/09 07:38:25;;;;;;;0.70;0.70;;;-2.70;99.90;;;;;;5061489;28;20044;-82
2022/12/09 07:40:52;;;;;;;0.90;0.90;;;-2.70;99.90;;;;;;5050188;28;20048;-82
2022/12/09 07:43:18;;;;;;;0.80;0.80;;;-2.70;99.90;;;;;;5047735;28;20401;-79
2022/12/09 07:45:44;;;;;;;0.80;0.80;;;-2.70;99.90;;;;;;5056824;28;20044;-81
2022/12/09 07:48:10;;;;;;;0.70;0.70;;;-2.60;99.90;;;;;;5066115;28;20054;-80
2022/12/09 07:50:36;;;;;;;;;;;-2.60;99.90;;;;;;5037058;28;20056;-77
2022/12/09 07:53:02;;;;;;;0.70;0.70;;;-2.50;99.90;;;;;;5055434;28;20257;-75
2022/12/09 07:55:27;;;;;;;;;;;-2.50;99.90;;;;;;5055904;28;20153;-75
2022/12/09 07:57:53;;;;;;;0.70;0.70;;;-1.00;99.90;;;;;;5047265;28;20391;-78
2022/12/09 08:00:19;;;;;;;0.70;0.70;;;-2.30;99.90;;;;;;5037911;28;20051;-78
2022/12/09 08:02:48;;;;;;;0.70;0.70;;;-2.20;99.90;;;;;;5056534;28;20536;-76
2022/12/09 08:05:14;;;;;;;0.70;0.70;;;-2.10;99.90;;;;;;5054693;28;20046;-77
2022/12/09 08:07:39;;;;;;;;;;;-1.90;99.90;;;;;;5060267;28;20049;-77
2022/12/09 08:10:06;;;;;;;0.70;0.70;;;-1.80;99.90;;;;;;5028184;28;20122;-77
2022/12/09 08:12:31;;;;;;;1.42;1.35;;;-1.80;99.90;;;;;;5055587;28;20363;-77
2022/12/09 08:14:57;;;;;;;0.93;0.93;;;-1.80;99.90;;;;;;5058807;28;20094;-77
2022/12/09 08:17:25;;;;;;;0.90;0.90;;;-1.70;99.90;;;;;;5063920;28;20037;-76
2022/12/09 08:19:51;;;;;;;1.88;1.80;;;-1.60;99.90;;;;;;5059718;28;20050;-76
2022/12/09 08:22:17;;;;;;;0.90;0.90;;;-1.60;99.90;;;;;;5059012;28;20036;-76
2022/12/09 08:24:42;;;;;;;0.80;0.80;;;-1.60;99.90;;;;;;5025823;28;20031;-76
2022/12/09 08:27:11;;;;;;;0.90;0.90;;;-1.50;99.90;;;;;;5054429;28;20040;-77
2022/12/09 08:29:40;;;;;;;0.73;0.73;;;-1.40;99.90;;;;;;5053741;28;20037;-77
2022/12/09 08:32:05;;;;;;;0.88;0.88;;;-1.40;99.90;;;;;;5039854;28;20097;-76
2022/12/09 08:34:31;;;;;;;0.90;0.90;;;-1.30;99.90;;;;;;5051773;28;20075;-77
2022/12/09 08:36:57;;;;;;;0.75;0.75;;;-1.20;99.90;;;;;;5065952;28;20036;-77
2022/12/09 08:39:22;;;;;;;0.70;0.70;;;-1.10;99.90;;;;;;5063052;28;20048;-77
2022/12/09 08:41:48;;;;;;;0.77;0.77;;;-1.00;99.90;;;;;;5060815;28;20048;-77
2022/12/09 08:44:16;;;;;;;1.65;1.55;;;-0.80;99.90;;;;;;5042375;28;20032;-77
2022/12/09 08:46:44;;;;;;;0.90;0.90;;;-0.70;99.90;;;;;;5042530;28;20098;-78
2022/12/09 08:49:11;;;;;;;0.80;0.80;;;-0.60;99.90;;;;;;5061248;28;20321;-77
2022/12/09 08:51:37;;;;;;;0.80;0.80;;;-0.60;99.90;;;;;;5060215;28;20048;-76
2022/12/09 08:54:04;;;;;;;2.15;1.90;;;-0.50;99.90;;;;;;5040995;28;20177;-77
2022/12/09 08:56:30;;;;;;;1.30;1.25;;;-0.50;99.90;;;;;;5066149;28;20086;-77
2022/12/09 08:58:56;;;;;;;3.60;2.45;;;-0.50;99.90;;;;;;5048018;28;20048;-76
2022/12/09 09:01:30;;;;;;;0.70;0.70;;;-0.40;99.90;;;;;;5059965;28;20109;-76
2022/12/09 09:03:57;;;;;;;0.90;0.90;;;-0.50;99.90;;;;;;5056473;28;20051;-77
2022/12/09 09:06:26;;;;;;;0.90;0.90;;;-0.40;99.90;;;;;;5057722;28;21747;-77
2022/12/09 09:08:54;;;;;;;2.42;2.33;;;-0.40;99.90;;;;;;5050987;28;20051;-77
2022/12/09 09:11:20;;;;;;;1.00;1.00;;;-0.40;99.90;;;;;;5063306;28;20037;-76
2022/12/09 09:13:51;;;;;;;2.05;1.95;;;-0.30;99.90;;;;;;5060351;28;20102;-76
2022/12/09 09:16:22;;;;;;;0.80;0.80;;;-0.30;99.90;;;;;;5076823;28;20042;-77
2022/12/09 09:18:49;;;;;;;1.98;1.05;;;-0.20;99.90;;;;;;5060449;28;20048;-76
2022/12/09 09:21:18;;;;;;;0.70;0.70;;;-0.20;99.90;;;;;;5066211;28;20474;-77
2022/12/09 09:23:44;;;;;;;0.98;0.98;;;-0.20;99.90;;;;;;5048307;28;20478;-77
2022/12/09 09:26:24;;;;;;;1.33;1.33;;;-0.20;99.90;;;;;;5062244;28;20119;-77
2022/12/09 09:28:50;;;;;;;1.85;1.77;;;-0.20;99.90;;;;;;5057060;28;20036;-78
2022/12/09 09:31:17;;;;;;;;;;;-0.10;99.90;;;;;;5054812;28;20423;-76
2022/12/09 09:33:44;;;;;;;5.15;4.35;;;-0.20;99.90;;;;;;5054936;28;19921;-77
2022/12/09 09:36:19;;;;;;;1.55;1.45;;;-0.20;99.90;;;;;;5059414;28;20045;-78
2022/12/09 09:38:47;;;;;;;0.73;0.73;;;-0.20;99.90;;;;;;5057067;28;20536;-77
2022/12/09 09:41:37;;;;;;;0.80;0.80;;;-0.20;99.90;;;;;;5056963;28;20044;-76
2022/12/09 09:44:13;;;;;;;0.63;0.63;;;-0.30;99.90;;;;;;5040939;28;20063;-76
2022/12/09 09:46:43;;;;;;;0.95;0.95;;;-0.30;99.90;;;;;;5069397;28;20540;-77
2022/12/09 09:49:19;;;;;;;0.73;0.73;;;-0.30;99.90;;;;;;5040291;28;20056;-76
2022/12/09 09:51:45;;;;;;;0.70;0.70;;;-0.30;99.90;;;;;;5039860;28;20847;-76
2022/12/09 09:54:13;;;;;;;3.63;3.42;;;-0.40;99.90;;;;;;5039825;28;20042;-76
2022/12/09 09:57:11;;;;;;;0.80;0.80;;;-0.40;99.90;;;;;;5040446;28;20052;-77
2022/12/09 09:59:59;;;;;;;0.90;0.90;;;-0.40;99.90;;;;;;5058737;28;20063;-76
2022/12/09 10:02:52;;;;;;;0.80;0.80;;;-0.40;99.90;;;;;;5057790;28;20052;-77
2022/12/09 10:05:24;;;;;;;0.80;0.80;;;-0.40;99.90;;;;;;5052974;28;20582;-78
2022/12/09 10:08:45;;;;;;;1.00;1.00;;;-0.40;99.90;;;;;;5052064;28;20041;-76
2022/12/09 10:11:22;;;;;;;0.80;0.80;;;-0.40;99.90;;;;;;5062079;28;20055;-76
2022/12/09 10:14:21;;;;;;;2.30;1.58;;;-0.40;99.90;;;;;;5055655;28;20044;-77
2022/12/09 10:17:03;;;;;;;0.95;0.95;;;-0.40;99.90;;;;;;5043058;28;20721;-77
2022/12/09 10:19:35;;;;;;;0.95;0.95;;;-0.30;99.90;;;;;;5053551;28;20473;-76
2022/12/09 10:22:12;;;;;;;1.00;1.00;;;-0.30;99.90;;;;;;5038724;28;20127;-77
2022/12/09 10:24:53;;;;;;;2.15;2.05;;;-0.30;99.90;;;;;;5041264;28;20072;-77
2022/12/09 10:27:41;;;;;;;0.95;0.95;;;-0.30;99.90;;;;;;5061621;28;20047;-78
2022/12/09 10:30:16;;;;;;;0.60;0.60;;;-0.30;99.90;;;;;;5057851;28;20040;-77
2022/12/09 10:32:44;;;;;;;3.65;1.40;;;-0.30;99.90;;;;;;5048001;28;20045;-77
2022/12/09 10:35:27;;;;;;;0.70;0.70;;;-0.30;99.90;;;;;;5062321;28;20143;-75
2022/12/09 10:37:55;;;;;;;0.90;0.90;;;-0.40;99.90;;;;;;5075304;28;20082;-77
2022/12/09 10:40:34;;;;;;;0.80;0.80;;;-0.40;99.90;;;;;;5064858;28;20058;-77
2022/12/09 10:46:23;;;;;;;0.70;0.70;;;-0.30;99.90;;;;;;5054917;28;20079;-78
2022/12/09 10:48:48;;;;;;;0.80;0.80;;;-0.30;99.90;;;;;;5066595;28;20063;-76
2022/12/09 10:51:25;;;;;;;2.72;0.85;;;-0.20;99.90;;;;;;5039667;28;20048;-78
2022/12/09 10:54:01;;;;;;;0.75;0.75;;;-0.30;99.90;;;;;;5058217;28;20607;-76
2022/12/09 10:56:33;;;;;;;1.60;1.50;;;-0.30;99.90;;;;;;5056398;28;20087;-77
2022/12/09 10:59:09;;;;;;;0.80;0.80;;;-0.30;99.90;;;;;;5062836;28;20041;-76
2022/12/09 11:01:50;;;;;;;0.80;0.80;;;-0.30;99.90;;;;;;5060009;28;20057;-77
2022/12/09 11:04:25;;;;;;;2.55;2.35;;;0.20;99.90;;;;;;5056876;28;20132;-77
2022/12/09 11:06:54;;;;;;;2.00;1.90;;;-0.30;99.90;;;;;;5049198;28;20041;-77
2022/12/09 11:09:28;;;;;;;0.70;0.70;;;-0.30;99.90;;;;;;5037824;28;20049;-77
2022/12/09 11:11:54;;;;;;;3.70;1.90;;;-0.30;99.90;;;;;;5054915;28;20064;-77
2022/12/09 11:14:39;;;;;;;0.80;0.80;;;0.40;99.90;;;;;;5058899;28;20490;-77
2022/12/09 11:17:20;;;;;;;0.60;0.60;;;-0.20;99.90;;;;;;5067285;28;20071;-78
2022/12/09 11:20:13;;;;;;;0.88;0.88;;;-0.20;99.90;;;;;;5040695;28;20571;-77
2022/12/09 11:22:44;;;;;;;2.28;1.70;;;-0.20;99.90;;;;;;5061483;28;20044;-77
2022/12/09 11:25:32;;;;;;;0.73;0.73;;;-0.20;99.90;;;;;;5056549;28;20044;-77
2022/12/09 11:28:07;;;;;;;1.35;1.25;;;-0.20;99.90;;;;;;5053430;28;20041;-77
2022/12/09 11:30:47;;;;;;;0.77;0.77;;;-0.10;99.90;;;;;;5054245;28;20052;-78
2022/12/09 11:33:12;;;;;;;1.50;1.40;;;-0.10;99.90;;;;;;5054982;28;20501;-77
2022/12/09 11:35:44;;;;;;;2.50;2.05;;;-0.20;99.90;;;;;;5054129;28;20077;-77
2022/12/09 11:38:34;;;;;;;0.65;0.65;;;-0.20;99.90;;;;;;5056189;28;20401;-77
2022/12/09 11:41:03;;;;;;;0.60;0.60;;;-0.20;99.90;;;;;;5049453;28;20080;-79
2022/12/09 11:43:32;;;;;;;0.70;0.70;;;-0.10;99.90;;;;;;5054486;28;20124;-77
2022/12/09 11:46:27;;;;;;;0.70;0.70;;;-0.20;99.90;;;;;;5056518;28;20568;-78
2022/12/09 11:49:14;;;;;;;0.90;0.90;;;-0.20;99.90;;;;;;5056404;28;20061;-77
2022/12/09 11:51:45;;;;;;;1.20;1.20;;;-0.20;99.90;;;;;;5058998;28;20060;-78
2022/12/09 11:54:16;;;;;;;0.70;0.70;;;-0.20;99.90;;;;;;5058081;28;20040;-77
2022/12/09 11:56:42;;;;;;;0.60;0.60;;;-0.20;99.90;;;;;;5059321;28;20051;-76
2022/12/09 11:59:33;;;;;;;1.58;1.48;;;-0.20;99.90;;;;;;5052899;28;20389;-77
2022/12/09 12:02:16;;;;;;;1.75;1.33;;;-0.30;99.90;;;;;;5065692;28;20744;-78
2022/12/09 12:04:56;;;;;;;0.80;0.80;;;-0.10;99.90;;;;;;5063282;28;20053;-78
2022/12/09 12:07:37;;;;;;;0.70;0.70;;;-0.10;99.90;;;;;;5054129;28;20074;-76
2022/12/09 12:10:08;;;;;;;0.70;0.70;;;-0.10;99.90;;;;;;5044397;28;20119;-78
2022/12/09 12:12:55;;;;;;;0.73;0.73;;;0.00;99.90;;;;;;5046487;28;20037;-77
2022/12/09 12:15:47;;;;;;;1.17;1.17;;;0.00;99.90;;;;;;5051614;28;20553;-77
2022/12/09 12:18:19;;;;;;;1.00;1.00;;;0.00;99.90;;;;;;5037961;28;20048;-76
2022/12/09 12:21:01;;;;;;;1.00;1.00;;;0.00;99.90;;;;;;5042994;28;20045;-78
2022/12/09 12:24:05;;;;;;;0.80;0.80;;;0.10;99.90;;;;;;5054611;28;20988;-77
2022/12/09 12:27:13;;;;;;;0.70;0.70;;;0.00;99.90;;;;;;5054138;28;20045;-77
2022/12/09 12:29:55;;;;;;;0.60;0.60;;;0.00;99.90;;;;;;5059745;28;20036;-78
2022/12/09 12:32:28;;;;;;;0.90;0.90;;;0.00;99.90;;;;;;5058225;28;20991;-77
2022/12/09 12:35:15;;;;;;;1.33;1.23;;;0.00;99.90;;;;;;5062502;28;20167;-78
2022/12/09 12:38:06;;;;;;;0.73;0.73;;;0.00;99.90;;;;;;5057170;28;20044;-78
2022/12/09 12:40:46;;;;;;;1.20;1.20;;;0.00;99.90;;;;;;5061775;28;20075;-77
2022/12/09 12:46:59;;;;;;;0.77;0.77;;;0.00;99.90;;;;;;5055534;28;20466;-78
2022/12/09 12:50:05;;;;;;;0.68;0.68;;;0.10;99.90;;;;;;5062194;28;20053;-76
2022/12/09 12:53:08;;;;;;;2.60;2.10;;;0.00;99.90;;;;;;5063969;28;20045;-78
2022/12/09 12:55:55;;;;;;;1.85;1.75;;;0.00;99.90;;;;;;5058848;28;20033;-77
2022/12/09 12:58:58;;;;;;;1.15;1.15;;;0.00;99.90;;;;;;5063682;28;20098;-78
2022/12/09 13:01:29;;;;;;;0.70;0.70;;;0.00;99.90;;;;;;5064479;28;20074;-78
2022/12/09 13:04:06;;;;;;;1.25;1.25;;;-0.10;99.90;;;;;;5060714;28;20200;-78
2022/12/09 13:06:42;;;;;;;0.60;0.60;;;0.00;99.90;;;;;;5060809;28;20037;-77
2022/12/09 13:09:18;;;;;;;1.33;1.33;;;0.00;99.90;;;;;;5063766;28;20059;-78
2022/12/09 13:12:15;;;;;;;0.60;0.60;;;0.00;99.90;;;;;;5064023;28;20826;-76
2022/12/09 13:14:52;;;;;;;0.88;0.88;;;0.00;99.90;;;;;;5064132;28;20063;-77
2022/12/09 13:17:22;;;;;;;0.82;0.82;;;0.00;99.90;;;;;;5064621;28;20036;-78
2022/12/09 13:19:50;;;;;;;0.70;0.70;;;0.10;99.90;;;;;;5070066;28;20056;-77
2022/12/09 13:22:46;;;;;;;0.60;0.60;;;0.00;99.90;;;;;;5056083;28;20044;-76
2022/12/09 13:25:30;;;;;;;1.48;1.48;;;0.00;99.90;;;;;;5054411;28;20091;-77